sensor_id;sensor_type;location;lat;lon;timestamp;P1;durP1;ratioP1;P2;durP2;ratioP2
15913;SDS011;8055;51.930;8.840;2022-08-19T00:00:26;10.75;;;7.10;;
15913;SDS011;8055;51.930;8.840;2022-08-19T00:02:52;9.93;;;6.57;;
15913;SDS011;8055;51.930;8.840;2022-08-19T00:05:19;12.20;;;6.95;;
15913;SDS011;8055;51.930;8.840;2022-08-19T00:07:47;10.07;;;6.35;;
15913;SDS011;8055;51.930;8.840;2022-08-19T00:10:14;12.57;;;7.97;;
15913;SDS011;8055;51.930;8.840;2022-08-19T00:12:40;13.55;;;8.02;;
15913;SDS011;8055;51.930;8.840;2022-08-19T00:15:08;9.38;;;7.07;;
15913;SDS011;8055;51.930;8.840;2022-08-19T00:17:37;12.35;;;7.22;;
15913;SDS011;8055;51.930;8.840;2022-08-19T00:20:07;14.02;;;8.00;;
15913;SDS011;8055;51.930;8.840;2022-08-19T00:22:33;12.48;;;7.57;;
15913;SDS011;8055;51.930;8.840;2022-08-19T00:24:59;12.90;;;8.02;;
15913;SDS011;8055;51.930;8.840;2022-08-19T00:27:25;9.90;;;6.75;;
15913;SDS011;8055;51.930;8.840;2022-08-19T00:29:50;10.93;;;6.43;;
15913;SDS011;8055;51.930;8.840;2022-08-19T00:32:16;7.38;;;5.85;;
15913;SDS011;8055;51.930;8.840;2022-08-19T00:34:42;12.73;;;7.13;;
15913;SDS011;8055;51.930;8.840;2022-08-19T00:37:08;10.40;;;7.03;;
15913;SDS011;8055;51.930;8.840;2022-08-19T00:39:34;11.63;;;6.75;;
15913;SDS011;8055;51.930;8.840;2022-08-19T00:42:00;10.88;;;6.82;;
15913;SDS011;8055;51.930;8.840;2022-08-19T00:44:27;11.55;;;7.25;;
15913;SDS011;8055;51.930;8.840;2022-08-19T00:46:54;13.10;;;7.03;;
15913;SDS011;8055;51.930;8.840;2022-08-19T00:49:24;8.68;;;6.15;;
15913;SDS011;8055;51.930;8.840;2022-08-19T00:51:55;10.32;;;6.28;;
15913;SDS011;8055;51.930;8.840;2022-08-19T00:54:26;9.90;;;6.40;;
15913;SDS011;8055;51.930;8.840;2022-08-19T00:56:53;12.15;;;6.95;;
15913;SDS011;8055;51.930;8.840;2022-08-19T00:59:19;6.80;;;5.75;;
15913;SDS011;8055;51.930;8.840;2022-08-19T01:01:45;10.10;;;5.95;;
15913;SDS011;8055;51.930;8.840;2022-08-19T01:04:12;8.90;;;6.47;;
15913;SDS011;8055;51.930;8.840;2022-08-19T01:06:38;7.70;;;6.25;;
15913;SDS011;8055;51.930;8.840;2022-08-19T01:09:06;8.13;;;6.15;;
15913;SDS011;8055;51.930;8.840;2022-08-19T01:11:33;10.27;;;7.10;;
15913;SDS011;8055;51.930;8.840;2022-08-19T01:14:02;11.15;;;6.88;;
15913;SDS011;8055;51.930;8.840;2022-08-19T01:16:28;10.27;;;6.43;;
15913;SDS011;8055;51.930;8.840;2022-08-19T01:18:55;13.13;;;7.07;;
15913;SDS011;8055;51.930;8.840;2022-08-19T01:24:09;13.50;;;7.93;;
15913;SDS011;8055;51.930;8.840;2022-08-19T01:26:38;10.82;;;7.38;;
15913;SDS011;8055;51.930;8.840;2022-08-19T01:31:33;13.48;;;7.25;;
15913;SDS011;8055;51.930;8.840;2022-08-19T01:33:58;11.43;;;7.18;;
15913;SDS011;8055;51.930;8.840;2022-08-19T01:36:36;11.18;;;7.53;;
15913;SDS011;8055;51.930;8.840;2022-08-19T01:39:08;13.57;;;8.05;;
15913;SDS011;8055;51.930;8.840;2022-08-19T01:41:36;10.40;;;7.75;;
15913;SDS011;8055;51.930;8.840;2022-08-19T01:44:03;14.68;;;7.88;;
15913;SDS011;8055;51.930;8.840;2022-08-19T01:46:31;14.45;;;8.35;;
15913;SDS011;8055;51.930;8.840;2022-08-19T01:48:57;11.23;;;7.57;;
15913;SDS011;8055;51.930;8.840;2022-08-19T01:51:22;13.55;;;8.35;;
15913;SDS011;8055;51.930;8.840;2022-08-19T01:53:48;17.67;;;9.57;;
15913;SDS011;8055;51.930;8.840;2022-08-19T01:56:16;18.35;;;9.25;;
15913;SDS011;8055;51.930;8.840;2022-08-19T01:58:48;12.20;;;9.18;;
15913;SDS011;8055;51.930;8.840;2022-08-19T02:01:18;13.65;;;9.30;;
15913;SDS011;8055;51.930;8.840;2022-08-19T02:03:43;12.52;;;8.43;;
15913;SDS011;8055;51.930;8.840;2022-08-19T02:06:09;13.80;;;9.80;;
15913;SDS011;8055;51.930;8.840;2022-08-19T02:08:35;9.30;;;8.05;;
15913;SDS011;8055;51.930;8.840;2022-08-19T02:11:02;11.55;;;8.15;;
15913;SDS011;8055;51.930;8.840;2022-08-19T02:13:28;11.43;;;8.00;;
15913;SDS011;8055;51.930;8.840;2022-08-19T02:15:54;14.07;;;8.48;;
15913;SDS011;8055;51.930;8.840;2022-08-19T02:18:19;10.50;;;8.07;;
15913;SDS011;8055;51.930;8.840;2022-08-19T02:20:45;11.43;;;8.43;;
15913;SDS011;8055;51.930;8.840;2022-08-19T02:23:12;12.35;;;8.73;;
15913;SDS011;8055;51.930;8.840;2022-08-19T02:25:39;13.85;;;8.90;;
15913;SDS011;8055;51.930;8.840;2022-08-19T02:28:05;12.02;;;7.40;;
15913;SDS011;8055;51.930;8.840;2022-08-19T02:30:31;17.48;;;8.07;;
15913;SDS011;8055;51.930;8.840;2022-08-19T02:32:56;11.25;;;7.78;;
15913;SDS011;8055;51.930;8.840;2022-08-19T02:35:22;9.90;;;7.90;;
15913;SDS011;8055;51.930;8.840;2022-08-19T02:37:48;12.77;;;8.30;;
15913;SDS011;8055;51.930;8.840;2022-08-19T02:40:32;12.43;;;8.88;;
15913;SDS011;8055;51.930;8.840;2022-08-19T02:42:59;9.48;;;7.68;;
15913;SDS011;8055;51.930;8.840;2022-08-19T02:45:35;13.60;;;7.70;;
15913;SDS011;8055;51.930;8.840;2022-08-19T02:48:02;13.55;;;8.40;;
15913;SDS011;8055;51.930;8.840;2022-08-19T02:50:29;12.18;;;8.95;;
15913;SDS011;8055;51.930;8.840;2022-08-19T02:52:55;11.65;;;8.20;;
15913;SDS011;8055;51.930;8.840;2022-08-19T02:55:21;15.32;;;8.68;;
15913;SDS011;8055;51.930;8.840;2022-08-19T02:57:46;15.63;;;9.02;;
15913;SDS011;8055;51.930;8.840;2022-08-19T03:00:12;15.07;;;10.20;;
15913;SDS011;8055;51.930;8.840;2022-08-19T03:02:38;17.25;;;9.40;;
15913;SDS011;8055;51.930;8.840;2022-08-19T03:05:05;15.18;;;8.93;;
15913;SDS011;8055;51.930;8.840;2022-08-19T03:07:31;13.00;;;9.18;;
15913;SDS011;8055;51.930;8.840;2022-08-19T03:09:57;12.18;;;8.88;;
15913;SDS011;8055;51.930;8.840;2022-08-19T03:12:22;13.95;;;8.23;;
15913;SDS011;8055;51.930;8.840;2022-08-19T03:14:48;11.52;;;9.15;;
15913;SDS011;8055;51.930;8.840;2022-08-19T03:17:13;11.95;;;7.75;;
15913;SDS011;8055;51.930;8.840;2022-08-19T03:19:38;12.50;;;7.93;;
15913;SDS011;8055;51.930;8.840;2022-08-19T03:22:04;13.15;;;8.57;;
15913;SDS011;8055;51.930;8.840;2022-08-19T03:24:30;11.88;;;8.40;;
15913;SDS011;8055;51.930;8.840;2022-08-19T03:26:57;11.60;;;8.20;;
15913;SDS011;8055;51.930;8.840;2022-08-19T03:29:24;10.25;;;8.20;;
15913;SDS011;8055;51.930;8.840;2022-08-19T03:31:51;12.23;;;8.32;;
15913;SDS011;8055;51.930;8.840;2022-08-19T03:34:18;10.77;;;7.95;;
15913;SDS011;8055;51.930;8.840;2022-08-19T03:36:45;10.93;;;8.52;;
15913;SDS011;8055;51.930;8.840;2022-08-19T03:39:11;11.45;;;8.27;;
15913;SDS011;8055;51.930;8.840;2022-08-19T03:41:38;10.63;;;8.27;;
15913;SDS011;8055;51.930;8.840;2022-08-19T03:44:05;11.38;;;8.90;;
15913;SDS011;8055;51.930;8.840;2022-08-19T03:46:31;13.70;;;9.45;;
15913;SDS011;8055;51.930;8.840;2022-08-19T03:48:59;15.35;;;10.75;;
15913;SDS011;8055;51.930;8.840;2022-08-19T03:51:30;14.13;;;10.65;;
15913;SDS011;8055;51.930;8.840;2022-08-19T03:53:58;14.38;;;11.27;;
15913;SDS011;8055;51.930;8.840;2022-08-19T03:56:26;14.18;;;11.70;;
15913;SDS011;8055;51.930;8.840;2022-08-19T03:58:56;17.05;;;12.65;;
15913;SDS011;8055;51.930;8.840;2022-08-19T04:01:24;16.45;;;11.82;;
15913;SDS011;8055;51.930;8.840;2022-08-19T04:03:55;16.48;;;12.40;;
15913;SDS011;8055;51.930;8.840;2022-08-19T04:06:23;18.95;;;14.05;;
15913;SDS011;8055;51.930;8.840;2022-08-19T04:08:51;18.73;;;13.38;;
15913;SDS011;8055;51.930;8.840;2022-08-19T04:11:20;17.23;;;12.43;;
15913;SDS011;8055;51.930;8.840;2022-08-19T04:13:48;19.63;;;13.05;;
15913;SDS011;8055;51.930;8.840;2022-08-19T04:16:19;16.88;;;13.68;;
15913;SDS011;8055;51.930;8.840;2022-08-19T04:18:46;19.38;;;12.85;;
15913;SDS011;8055;51.930;8.840;2022-08-19T04:21:17;16.98;;;12.52;;
15913;SDS011;8055;51.930;8.840;2022-08-19T04:23:44;18.80;;;13.40;;
15913;SDS011;8055;51.930;8.840;2022-08-19T04:26:17;15.30;;;13.25;;
15913;SDS011;8055;51.930;8.840;2022-08-19T04:28:44;20.80;;;13.98;;
15913;SDS011;8055;51.930;8.840;2022-08-19T04:31:18;16.70;;;12.00;;
15913;SDS011;8055;51.930;8.840;2022-08-19T04:33:45;17.67;;;12.77;;
15913;SDS011;8055;51.930;8.840;2022-08-19T04:36:21;17.92;;;13.27;;
15913;SDS011;8055;51.930;8.840;2022-08-19T04:38:48;18.38;;;12.95;;
15913;SDS011;8055;51.930;8.840;2022-08-19T04:41:14;20.25;;;12.93;;
15913;SDS011;8055;51.930;8.840;2022-08-19T04:43:58;14.77;;;11.68;;
15913;SDS011;8055;51.930;8.840;2022-08-19T04:46:24;15.38;;;12.30;;
15913;SDS011;8055;51.930;8.840;2022-08-19T04:48:50;17.90;;;11.30;;
15913;SDS011;8055;51.930;8.840;2022-08-19T04:51:16;16.25;;;12.13;;
15913;SDS011;8055;51.930;8.840;2022-08-19T04:53:41;15.57;;;11.43;;
15913;SDS011;8055;51.930;8.840;2022-08-19T04:56:08;17.17;;;10.85;;
15913;SDS011;8055;51.930;8.840;2022-08-19T04:58:36;15.00;;;11.00;;
15913;SDS011;8055;51.930;8.840;2022-08-19T05:01:02;11.02;;;9.07;;
15913;SDS011;8055;51.930;8.840;2022-08-19T05:03:28;14.45;;;9.90;;
15913;SDS011;8055;51.930;8.840;2022-08-19T05:06:03;10.30;;;9.15;;
15913;SDS011;8055;51.930;8.840;2022-08-19T05:08:32;14.40;;;8.82;;
15913;SDS011;8055;51.930;8.840;2022-08-19T05:10:58;11.20;;;8.52;;
15913;SDS011;8055;51.930;8.840;2022-08-19T05:13:24;8.55;;;7.22;;
15913;SDS011;8055;51.930;8.840;2022-08-19T05:15:54;16.95;;;10.50;;
15913;SDS011;8055;51.930;8.840;2022-08-19T05:18:21;10.63;;;9.35;;
15913;SDS011;8055;51.930;8.840;2022-08-19T05:21:07;15.70;;;10.18;;
15913;SDS011;8055;51.930;8.840;2022-08-19T05:23:52;15.27;;;10.77;;
15913;SDS011;8055;51.930;8.840;2022-08-19T05:26:17;16.98;;;11.30;;
15913;SDS011;8055;51.930;8.840;2022-08-19T05:28:42;15.15;;;10.50;;
15913;SDS011;8055;51.930;8.840;2022-08-19T05:31:08;16.10;;;11.43;;
15913;SDS011;8055;51.930;8.840;2022-08-19T05:33:33;17.52;;;10.98;;
15913;SDS011;8055;51.930;8.840;2022-08-19T05:35:59;17.02;;;11.98;;
15913;SDS011;8055;51.930;8.840;2022-08-19T05:38:26;13.30;;;10.48;;
15913;SDS011;8055;51.930;8.840;2022-08-19T05:40:52;19.00;;;12.55;;
15913;SDS011;8055;51.930;8.840;2022-08-19T05:43:17;17.75;;;11.43;;
15913;SDS011;8055;51.930;8.840;2022-08-19T05:45:43;14.70;;;11.13;;
15913;SDS011;8055;51.930;8.840;2022-08-19T05:48:10;17.10;;;11.52;;
15913;SDS011;8055;51.930;8.840;2022-08-19T05:50:37;17.88;;;11.98;;
15913;SDS011;8055;51.930;8.840;2022-08-19T05:53:06;14.50;;;10.88;;
15913;SDS011;8055;51.930;8.840;2022-08-19T05:55:34;16.13;;;11.43;;
15913;SDS011;8055;51.930;8.840;2022-08-19T05:57:59;17.30;;;10.48;;
15913;SDS011;8055;51.930;8.840;2022-08-19T06:00:26;17.08;;;12.15;;
15913;SDS011;8055;51.930;8.840;2022-08-19T06:02:52;18.85;;;11.55;;
15913;SDS011;8055;51.930;8.840;2022-08-19T06:05:19;16.08;;;10.23;;
15913;SDS011;8055;51.930;8.840;2022-08-19T06:07:45;18.55;;;11.52;;
15913;SDS011;8055;51.930;8.840;2022-08-19T06:10:10;14.07;;;11.40;;
15913;SDS011;8055;51.930;8.840;2022-08-19T06:12:38;14.50;;;9.80;;
15913;SDS011;8055;51.930;8.840;2022-08-19T06:15:06;15.75;;;10.10;;
15913;SDS011;8055;51.930;8.840;2022-08-19T06:17:34;15.63;;;9.43;;
15913;SDS011;8055;51.930;8.840;2022-08-19T06:20:00;14.50;;;9.00;;
15913;SDS011;8055;51.930;8.840;2022-08-19T06:22:26;14.73;;;9.05;;
15913;SDS011;8055;51.930;8.840;2022-08-19T06:24:53;12.30;;;9.10;;
15913;SDS011;8055;51.930;8.840;2022-08-19T06:27:19;11.73;;;7.88;;
15913;SDS011;8055;51.930;8.840;2022-08-19T06:29:45;13.88;;;8.48;;
15913;SDS011;8055;51.930;8.840;2022-08-19T06:32:11;12.75;;;8.05;;
15913;SDS011;8055;51.930;8.840;2022-08-19T06:34:39;10.00;;;7.93;;
15913;SDS011;8055;51.930;8.840;2022-08-19T06:37:06;12.52;;;7.40;;
15913;SDS011;8055;51.930;8.840;2022-08-19T06:39:34;9.75;;;6.88;;
15913;SDS011;8055;51.930;8.840;2022-08-19T06:42:03;13.10;;;7.47;;
15913;SDS011;8055;51.930;8.840;2022-08-19T06:44:33;9.32;;;7.38;;
15913;SDS011;8055;51.930;8.840;2022-08-19T06:47:02;10.48;;;7.07;;
15913;SDS011;8055;51.930;8.840;2022-08-19T06:49:29;11.57;;;6.93;;
15913;SDS011;8055;51.930;8.840;2022-08-19T06:51:56;11.95;;;7.38;;
15913;SDS011;8055;51.930;8.840;2022-08-19T06:54:23;11.55;;;6.40;;
15913;SDS011;8055;51.930;8.840;2022-08-19T06:56:49;8.45;;;6.15;;
15913;SDS011;8055;51.930;8.840;2022-08-19T06:59:19;13.13;;;6.80;;
15913;SDS011;8055;51.930;8.840;2022-08-19T07:01:47;11.10;;;6.70;;
15913;SDS011;8055;51.930;8.840;2022-08-19T07:04:16;10.70;;;6.95;;
15913;SDS011;8055;51.930;8.840;2022-08-19T07:06:46;11.30;;;6.75;;
15913;SDS011;8055;51.930;8.840;2022-08-19T07:09:13;12.00;;;6.53;;
15913;SDS011;8055;51.930;8.840;2022-08-19T07:11:49;10.40;;;6.32;;
15913;SDS011;8055;51.930;8.840;2022-08-19T07:14:18;12.93;;;7.82;;
15913;SDS011;8055;51.930;8.840;2022-08-19T07:16:47;9.85;;;6.32;;
15913;SDS011;8055;51.930;8.840;2022-08-19T07:19:14;9.23;;;6.70;;
15913;SDS011;8055;51.930;8.840;2022-08-19T07:21:39;9.10;;;6.35;;
15913;SDS011;8055;51.930;8.840;2022-08-19T07:24:05;10.30;;;5.68;;
15913;SDS011;8055;51.930;8.840;2022-08-19T07:26:32;9.48;;;5.45;;
15913;SDS011;8055;51.930;8.840;2022-08-19T07:29:02;7.30;;;5.03;;
15913;SDS011;8055;51.930;8.840;2022-08-19T07:31:27;6.95;;;4.55;;
15913;SDS011;8055;51.930;8.840;2022-08-19T07:33:54;8.15;;;5.32;;
15913;SDS011;8055;51.930;8.840;2022-08-19T07:36:25;8.85;;;5.00;;
15913;SDS011;8055;51.930;8.840;2022-08-19T07:38:57;7.43;;;4.95;;
15913;SDS011;8055;51.930;8.840;2022-08-19T07:41:25;7.97;;;4.55;;
15913;SDS011;8055;51.930;8.840;2022-08-19T07:43:53;7.15;;;4.72;;
15913;SDS011;8055;51.930;8.840;2022-08-19T07:46:19;7.22;;;4.53;;
15913;SDS011;8055;51.930;8.840;2022-08-19T07:48:45;9.45;;;5.65;;
15913;SDS011;8055;51.930;8.840;2022-08-19T07:51:14;8.07;;;5.57;;
15913;SDS011;8055;51.930;8.840;2022-08-19T07:53:43;8.20;;;5.10;;
15913;SDS011;8055;51.930;8.840;2022-08-19T07:56:10;7.00;;;6.10;;
15913;SDS011;8055;51.930;8.840;2022-08-19T07:58:39;7.72;;;5.63;;
15913;SDS011;8055;51.930;8.840;2022-08-19T08:01:08;6.53;;;5.57;;
15913;SDS011;8055;51.930;8.840;2022-08-19T08:03:36;8.48;;;5.72;;
15913;SDS011;8055;51.930;8.840;2022-08-19T08:06:20;6.45;;;5.22;;
15913;SDS011;8055;51.930;8.840;2022-08-19T08:09:05;8.38;;;6.68;;
15913;SDS011;8055;51.930;8.840;2022-08-19T08:11:38;8.73;;;5.60;;
15913;SDS011;8055;51.930;8.840;2022-08-19T08:14:05;9.48;;;5.97;;
15913;SDS011;8055;51.930;8.840;2022-08-19T08:16:35;8.48;;;5.88;;
15913;SDS011;8055;51.930;8.840;2022-08-19T08:19:03;7.97;;;6.57;;
15913;SDS011;8055;51.930;8.840;2022-08-19T08:21:31;6.85;;;5.00;;
15913;SDS011;8055;51.930;8.840;2022-08-19T08:23:57;6.20;;;5.60;;
15913;SDS011;8055;51.930;8.840;2022-08-19T08:26:22;7.35;;;5.40;;
15913;SDS011;8055;51.930;8.840;2022-08-19T08:28:48;7.80;;;5.47;;
15913;SDS011;8055;51.930;8.840;2022-08-19T08:31:14;9.85;;;5.47;;
15913;SDS011;8055;51.930;8.840;2022-08-19T08:33:39;6.53;;;5.03;;
15913;SDS011;8055;51.930;8.840;2022-08-19T08:36:07;7.85;;;5.55;;
15913;SDS011;8055;51.930;8.840;2022-08-19T08:38:33;8.38;;;5.60;;
15913;SDS011;8055;51.930;8.840;2022-08-19T08:41:04;8.02;;;5.60;;
15913;SDS011;8055;51.930;8.840;2022-08-19T08:43:40;7.88;;;5.15;;
15913;SDS011;8055;51.930;8.840;2022-08-19T08:51:34;6.72;;;4.60;;
15913;SDS011;8055;51.930;8.840;2022-08-19T08:54:05;7.15;;;4.50;;
15913;SDS011;8055;51.930;8.840;2022-08-19T08:56:32;6.50;;;5.40;;
15913;SDS011;8055;51.930;8.840;2022-08-19T09:01:33;7.70;;;5.13;;
15913;SDS011;8055;51.930;8.840;2022-08-19T09:04:02;5.63;;;4.90;;
15913;SDS011;8055;51.930;8.840;2022-08-19T09:09:18;8.15;;;5.20;;
15913;SDS011;8055;51.930;8.840;2022-08-19T09:14:37;5.15;;;4.47;;
15913;SDS011;8055;51.930;8.840;2022-08-19T09:17:11;6.32;;;3.90;;
15913;SDS011;8055;51.930;8.840;2022-08-19T09:22:23;5.60;;;4.40;;
15913;SDS011;8055;51.930;8.840;2022-08-19T09:24:49;4.32;;;3.88;;
15913;SDS011;8055;51.930;8.840;2022-08-19T09:27:17;4.10;;;3.67;;
15913;SDS011;8055;51.930;8.840;2022-08-19T09:29:44;5.57;;;4.53;;
15913;SDS011;8055;51.930;8.840;2022-08-19T09:32:09;4.25;;;3.67;;
15913;SDS011;8055;51.930;8.840;2022-08-19T09:34:35;6.25;;;3.67;;
15913;SDS011;8055;51.930;8.840;2022-08-19T09:37:00;5.55;;;3.10;;
15913;SDS011;8055;51.930;8.840;2022-08-19T09:39:26;4.47;;;2.83;;
15913;SDS011;8055;51.930;8.840;2022-08-19T09:41:51;5.47;;;3.22;;
15913;SDS011;8055;51.930;8.840;2022-08-19T09:44:17;5.20;;;4.13;;
15913;SDS011;8055;51.930;8.840;2022-08-19T09:46:45;6.35;;;3.63;;
15913;SDS011;8055;51.930;8.840;2022-08-19T09:49:14;4.50;;;3.40;;
15913;SDS011;8055;51.930;8.840;2022-08-19T09:51:42;6.40;;;3.83;;
15913;SDS011;8055;51.930;8.840;2022-08-19T09:54:07;5.85;;;3.13;;
15913;SDS011;8055;51.930;8.840;2022-08-19T09:56:32;5.65;;;2.80;;
15913;SDS011;8055;51.930;8.840;2022-08-19T09:58:58;5.82;;;3.15;;
15913;SDS011;8055;51.930;8.840;2022-08-19T10:01:25;4.70;;;2.45;;
15913;SDS011;8055;51.930;8.840;2022-08-19T10:03:54;5.00;;;2.85;;
15913;SDS011;8055;51.930;8.840;2022-08-19T10:06:24;3.60;;;2.58;;
15913;SDS011;8055;51.930;8.840;2022-08-19T10:08:55;5.60;;;2.67;;
15913;SDS011;8055;51.930;8.840;2022-08-19T10:11:20;3.15;;;2.30;;
15913;SDS011;8055;51.930;8.840;2022-08-19T10:13:46;4.95;;;2.50;;
15913;SDS011;8055;51.930;8.840;2022-08-19T10:16:13;4.07;;;2.78;;
15913;SDS011;8055;51.930;8.840;2022-08-19T10:18:41;3.55;;;2.65;;
15913;SDS011;8055;51.930;8.840;2022-08-19T10:21:15;3.25;;;2.67;;
15913;SDS011;8055;51.930;8.840;2022-08-19T10:23:45;3.30;;;3.00;;
15913;SDS011;8055;51.930;8.840;2022-08-19T10:26:14;4.95;;;2.65;;
15913;SDS011;8055;51.930;8.840;2022-08-19T10:28:44;3.47;;;2.45;;
15913;SDS011;8055;51.930;8.840;2022-08-19T10:31:11;4.57;;;3.28;;
15913;SDS011;8055;51.930;8.840;2022-08-19T10:33:40;5.53;;;2.67;;
15913;SDS011;8055;51.930;8.840;2022-08-19T10:36:07;5.45;;;2.67;;
15913;SDS011;8055;51.930;8.840;2022-08-19T10:38:35;4.13;;;2.45;;
15913;SDS011;8055;51.930;8.840;2022-08-19T10:41:12;5.05;;;2.40;;
15913;SDS011;8055;51.930;8.840;2022-08-19T10:43:42;3.45;;;2.33;;
15913;SDS011;8055;51.930;8.840;2022-08-19T10:46:11;3.22;;;2.33;;
15913;SDS011;8055;51.930;8.840;2022-08-19T10:48:38;3.03;;;2.58;;
15913;SDS011;8055;51.930;8.840;2022-08-19T10:51:04;5.38;;;2.83;;
15913;SDS011;8055;51.930;8.840;2022-08-19T10:53:49;5.05;;;2.33;;
15913;SDS011;8055;51.930;8.840;2022-08-19T10:56:14;2.53;;;2.03;;
15913;SDS011;8055;51.930;8.840;2022-08-19T10:58:59;3.65;;;2.03;;
15913;SDS011;8055;51.930;8.840;2022-08-19T11:01:25;6.22;;;2.67;;
15913;SDS011;8055;51.930;8.840;2022-08-19T11:03:52;3.53;;;2.30;;
15913;SDS011;8055;51.930;8.840;2022-08-19T11:06:17;3.45;;;2.40;;
15913;SDS011;8055;51.930;8.840;2022-08-19T11:08:44;2.95;;;1.92;;
15913;SDS011;8055;51.930;8.840;2022-08-19T11:11:10;4.28;;;2.50;;
15913;SDS011;8055;51.930;8.840;2022-08-19T11:13:37;4.53;;;2.22;;
15913;SDS011;8055;51.930;8.840;2022-08-19T11:16:08;3.75;;;2.35;;
15913;SDS011;8055;51.930;8.840;2022-08-19T11:18:39;3.03;;;2.10;;
15913;SDS011;8055;51.930;8.840;2022-08-19T11:21:14;4.25;;;2.55;;
15913;SDS011;8055;51.930;8.840;2022-08-19T11:23:49;5.07;;;2.50;;
15913;SDS011;8055;51.930;8.840;2022-08-19T11:26:17;4.88;;;2.30;;
15913;SDS011;8055;51.930;8.840;2022-08-19T11:28:44;2.65;;;2.05;;
15913;SDS011;8055;51.930;8.840;2022-08-19T11:31:11;2.42;;;2.15;;
15913;SDS011;8055;51.930;8.840;2022-08-19T11:33:39;3.60;;;2.22;;
15913;SDS011;8055;51.930;8.840;2022-08-19T11:36:04;4.57;;;2.50;;
15913;SDS011;8055;51.930;8.840;2022-08-19T11:38:30;3.45;;;2.47;;
15913;SDS011;8055;51.930;8.840;2022-08-19T11:40:56;4.65;;;3.20;;
15913;SDS011;8055;51.930;8.840;2022-08-19T11:43:22;3.67;;;2.30;;
15913;SDS011;8055;51.930;8.840;2022-08-19T11:45:49;3.33;;;2.20;;
15913;SDS011;8055;51.930;8.840;2022-08-19T11:48:15;4.40;;;2.63;;
15913;SDS011;8055;51.930;8.840;2022-08-19T11:50:40;2.75;;;2.22;;
15913;SDS011;8055;51.930;8.840;2022-08-19T11:53:07;4.95;;;2.53;;
15913;SDS011;8055;51.930;8.840;2022-08-19T11:55:32;6.07;;;2.45;;
15913;SDS011;8055;51.930;8.840;2022-08-19T11:58:03;5.32;;;2.17;;
15913;SDS011;8055;51.930;8.840;2022-08-19T12:00:31;4.50;;;2.47;;
15913;SDS011;8055;51.930;8.840;2022-08-19T12:02:58;4.32;;;1.63;;
15913;SDS011;8055;51.930;8.840;2022-08-19T12:05:23;2.95;;;1.70;;
15913;SDS011;8055;51.930;8.840;2022-08-19T12:07:49;5.63;;;2.20;;
15913;SDS011;8055;51.930;8.840;2022-08-19T12:10:14;2.40;;;1.77;;
15913;SDS011;8055;51.930;8.840;2022-08-19T12:12:40;2.58;;;1.83;;
15913;SDS011;8055;51.930;8.840;2022-08-19T12:15:08;2.22;;;1.80;;
15913;SDS011;8055;51.930;8.840;2022-08-19T12:17:35;5.65;;;1.77;;
15913;SDS011;8055;51.930;8.840;2022-08-19T12:20:01;4.13;;;2.08;;
15913;SDS011;8055;51.930;8.840;2022-08-19T12:22:27;3.67;;;1.80;;
15913;SDS011;8055;51.930;8.840;2022-08-19T12:24:53;5.55;;;2.13;;
15913;SDS011;8055;51.930;8.840;2022-08-19T12:27:19;2.25;;;2.00;;
15913;SDS011;8055;51.930;8.840;2022-08-19T12:29:45;2.15;;;1.88;;
15913;SDS011;8055;51.930;8.840;2022-08-19T12:32:11;6.68;;;2.08;;
15913;SDS011;8055;51.930;8.840;2022-08-19T12:34:36;3.78;;;1.90;;
15913;SDS011;8055;51.930;8.840;2022-08-19T12:37:03;2.15;;;1.88;;
15913;SDS011;8055;51.930;8.840;2022-08-19T12:39:33;4.00;;;1.73;;
15913;SDS011;8055;51.930;8.840;2022-08-19T12:42:03;1.88;;;1.73;;
15913;SDS011;8055;51.930;8.840;2022-08-19T12:44:29;2.80;;;1.90;;
15913;SDS011;8055;51.930;8.840;2022-08-19T12:46:56;3.33;;;2.17;;
15913;SDS011;8055;51.930;8.840;2022-08-19T12:49:22;2.33;;;1.90;;
15913;SDS011;8055;51.930;8.840;2022-08-19T12:51:47;2.45;;;1.90;;
15913;SDS011;8055;51.930;8.840;2022-08-19T12:54:12;3.25;;;1.92;;
15913;SDS011;8055;51.930;8.840;2022-08-19T12:56:38;2.72;;;1.70;;
15913;SDS011;8055;51.930;8.840;2022-08-19T12:59:03;2.75;;;1.60;;
15913;SDS011;8055;51.930;8.840;2022-08-19T13:01:29;3.97;;;1.80;;
15913;SDS011;8055;51.930;8.840;2022-08-19T13:03:58;3.50;;;1.90;;
15913;SDS011;8055;51.930;8.840;2022-08-19T13:06:24;1.92;;;1.55;;
15913;SDS011;8055;51.930;8.840;2022-08-19T13:08:50;3.88;;;1.73;;
15913;SDS011;8055;51.930;8.840;2022-08-19T13:11:17;6.47;;;2.70;;
15913;SDS011;8055;51.930;8.840;2022-08-19T13:13:45;5.18;;;1.70;;
15913;SDS011;8055;51.930;8.840;2022-08-19T13:16:13;4.40;;;1.95;;
15913;SDS011;8055;51.930;8.840;2022-08-19T13:18:40;4.47;;;2.10;;
15913;SDS011;8055;51.930;8.840;2022-08-19T13:21:07;2.78;;;2.10;;
15913;SDS011;8055;51.930;8.840;2022-08-19T13:23:34;2.40;;;2.00;;
15913;SDS011;8055;51.930;8.840;2022-08-19T13:26:02;3.70;;;2.00;;
15913;SDS011;8055;51.930;8.840;2022-08-19T13:28:29;4.45;;;2.10;;
15913;SDS011;8055;51.930;8.840;2022-08-19T13:31:16;4.18;;;2.00;;
15913;SDS011;8055;51.930;8.840;2022-08-19T13:34:04;2.85;;;2.10;;
15913;SDS011;8055;51.930;8.840;2022-08-19T13:36:31;4.45;;;2.10;;
15913;SDS011;8055;51.930;8.840;2022-08-19T13:38:57;3.10;;;2.05;;
15913;SDS011;8055;51.930;8.840;2022-08-19T13:41:23;2.75;;;1.75;;
15913;SDS011;8055;51.930;8.840;2022-08-19T13:43:48;2.88;;;2.10;;
15913;SDS011;8055;51.930;8.840;2022-08-19T13:46:14;3.45;;;1.98;;
15913;SDS011;8055;51.930;8.840;2022-08-19T13:48:40;2.30;;;1.90;;
15913;SDS011;8055;51.930;8.840;2022-08-19T13:51:06;2.10;;;1.90;;
15913;SDS011;8055;51.930;8.840;2022-08-19T13:53:37;2.28;;;2.08;;
15913;SDS011;8055;51.930;8.840;2022-08-19T13:56:07;3.78;;;1.95;;
15913;SDS011;8055;51.930;8.840;2022-08-19T13:58:35;2.35;;;2.15;;
15913;SDS011;8055;51.930;8.840;2022-08-19T14:01:00;2.15;;;1.88;;
15913;SDS011;8055;51.930;8.840;2022-08-19T14:03:26;4.07;;;2.03;;
15913;SDS011;8055;51.930;8.840;2022-08-19T14:05:51;2.97;;;2.15;;
15913;SDS011;8055;51.930;8.840;2022-08-19T14:08:17;3.00;;;1.95;;
15913;SDS011;8055;51.930;8.840;2022-08-19T14:10:43;2.72;;;1.80;;
15913;SDS011;8055;51.930;8.840;2022-08-19T14:13:10;3.17;;;1.90;;
15913;SDS011;8055;51.930;8.840;2022-08-19T14:15:38;3.05;;;2.03;;
15913;SDS011;8055;51.930;8.840;2022-08-19T14:18:04;5.70;;;2.22;;
15913;SDS011;8055;51.930;8.840;2022-08-19T14:20:30;2.38;;;2.17;;
15913;SDS011;8055;51.930;8.840;2022-08-19T14:22:55;5.07;;;2.25;;
15913;SDS011;8055;51.930;8.840;2022-08-19T14:25:24;4.18;;;2.13;;
15913;SDS011;8055;51.930;8.840;2022-08-19T14:27:51;5.38;;;2.03;;
15913;SDS011;8055;51.930;8.840;2022-08-19T14:30:19;6.75;;;2.13;;
15913;SDS011;8055;51.930;8.840;2022-08-19T14:32:46;3.13;;;2.28;;
15913;SDS011;8055;51.930;8.840;2022-08-19T14:35:13;6.30;;;2.38;;
15913;SDS011;8055;51.930;8.840;2022-08-19T14:37:41;2.25;;;2.05;;
15913;SDS011;8055;51.930;8.840;2022-08-19T14:40:07;4.22;;;2.10;;
15913;SDS011;8055;51.930;8.840;2022-08-19T14:42:33;2.88;;;2.13;;
15913;SDS011;8055;51.930;8.840;2022-08-19T14:44:59;3.47;;;2.20;;
15913;SDS011;8055;51.930;8.840;2022-08-19T14:47:26;3.08;;;2.47;;
15913;SDS011;8055;51.930;8.840;2022-08-19T14:49:53;4.10;;;2.15;;
15913;SDS011;8055;51.930;8.840;2022-08-19T14:52:19;2.72;;;2.20;;
15913;SDS011;8055;51.930;8.840;2022-08-19T14:54:44;5.88;;;2.45;;
15913;SDS011;8055;51.930;8.840;2022-08-19T14:57:13;3.58;;;2.78;;
15913;SDS011;8055;51.930;8.840;2022-08-19T14:59:41;2.33;;;2.10;;
15913;SDS011;8055;51.930;8.840;2022-08-19T15:02:07;2.70;;;1.85;;
15913;SDS011;8055;51.930;8.840;2022-08-19T15:04:32;2.65;;;2.17;;
15913;SDS011;8055;51.930;8.840;2022-08-19T15:06:58;2.67;;;2.20;;
15913;SDS011;8055;51.930;8.840;2022-08-19T15:09:23;2.65;;;2.22;;
15913;SDS011;8055;51.930;8.840;2022-08-19T15:11:49;2.83;;;2.50;;
15913;SDS011;8055;51.930;8.840;2022-08-19T15:14:14;3.95;;;2.38;;
15913;SDS011;8055;51.930;8.840;2022-08-19T15:16:41;5.43;;;2.53;;